createdAt,value
2019-01-13T01:04:44.882Z,3.72
2019-01-13T01:09:51.330Z,3.50
2019-01-13T01:14:56.787Z,3.51
2019-01-13T01:20:01.115Z,3.86
2019-01-13T01:25:03.546Z,3.75
2019-01-13T01:30:07.519Z,3.81
2019-01-13T02:32:12.098Z,3.79
2019-01-13T02:37:14.523Z,3.97
2019-01-13T02:42:21.590Z,3.97
2019-01-13T02:47:22.940Z,3.93
2019-01-13T02:52:24.268Z,3.89
2019-01-13T02:57:25.581Z,3.98
2019-01-13T04:05:49.969Z,4.28
2019-01-13T04:10:52.753Z,4.52
2019-01-13T04:15:56.344Z,4.36
2019-01-13T04:20:59.173Z,4.53
2019-01-13T04:26:02.177Z,4.51
2019-01-13T06:06:05.444Z,5.04
2019-01-13T06:11:07.329Z,4.93
2019-01-13T06:16:11.526Z,4.88
2019-01-13T06:21:13.045Z,4.85
2019-01-13T06:26:15.708Z,4.75
2019-01-13T06:31:18.408Z,4.82
2019-01-13T06:36:21.846Z,4.90
2019-01-13T06:41:24.920Z,4.86
2019-01-13T06:46:27.479Z,5.00
2019-01-13T06:51:30.275Z,4.75
2019-01-13T06:56:33.998Z,4.91
2019-01-13T07:01:36.847Z,4.94
2019-01-13T07:06:39.041Z,5.00
2019-01-13T07:11:41.462Z,4.93
2019-01-13T07:16:43.006Z,4.81
2019-01-13T07:21:44.420Z,4.76
2019-01-13T07:26:45.820Z,4.94
2019-01-13T07:31:48.229Z,4.87
2019-01-13T07:36:50.055Z,4.91
2019-01-13T07:41:51.930Z,5.00
2019-01-13T07:46:54.560Z,5.12
2019-01-13T07:51:56.561Z,5.12
2019-01-13T07:56:57.966Z,4.98
2019-01-13T08:01:59.377Z,4.94
2019-01-13T08:07:00.913Z,5.01
2019-01-13T08:12:02.476Z,5.12
2019-01-13T08:17:04.977Z,5.19
2019-01-13T08:22:06.414Z,5.22
2019-01-13T08:27:08.525Z,5.34
2019-01-13T08:32:10.934Z,5.33
2019-01-13T08:37:12.512Z,5.28
2019-01-13T08:42:13.960Z,5.20
2019-01-13T08:47:15.387Z,5.31
2019-01-13T08:52:17.585Z,5.33
2019-01-13T08:57:19.564Z,5.43
2019-01-13T09:02:21.354Z,5.32
2019-01-13T09:07:23.137Z,5.44
2019-01-13T09:12:24.844Z,5.12
2019-01-13T09:17:27.325Z,5.28
2019-01-13T09:22:28.862Z,5.47
2019-01-13T09:27:30.727Z,5.51
2019-01-13T09:32:39.251Z,5.50
2019-01-13T09:37:36.256Z,5.57
2019-01-13T09:42:38.905Z,5.65
2019-01-13T09:47:40.739Z,5.48
2019-01-13T09:52:42.534Z,5.75
2019-01-13T09:57:44.263Z,5.79
2019-01-13T10:02:46.877Z,5.81
2019-01-13T10:07:47.773Z,5.78
2019-01-13T10:12:49.303Z,5.73
2019-01-13T10:17:50.870Z,5.74
2019-01-13T10:22:52.563Z,5.60
2019-01-13T10:27:54.460Z,5.45
2019-01-13T10:32:55.911Z,5.68
2019-01-13T10:37:57.350Z,5.61
2019-01-13T10:42:58.834Z,5.17
2019-01-13T10:48:00.552Z,5.12
2019-01-13T10:53:02.509Z,4.85
2019-01-13T10:58:04.079Z,4.92
2019-01-13T11:03:05.686Z,4.75
2019-01-13T11:08:11.380Z,4.74
2019-01-13T11:13:08.839Z,4.70
2019-01-13T11:18:10.321Z,4.70
2019-01-13T11:23:11.709Z,4.53
2019-01-13T11:28:13.825Z,4.62
2019-01-13T11:33:15.234Z,4.29
2019-01-13T11:38:16.808Z,4.36
2019-01-13T11:43:19.278Z,4.18
2019-01-13T11:48:21.056Z,4.19
2019-01-13T11:53:22.609Z,4.23
2019-01-13T11:58:24.076Z,4.24
2019-01-13T12:03:25.652Z,4.14
2019-01-13T12:08:27.969Z,4.17
2019-01-13T12:13:29.585Z,4.15
2019-01-13T12:18:31.173Z,4.02
2019-01-13T12:23:32.821Z,4.28
2019-01-13T12:28:34.328Z,4.20
2019-01-13T12:33:35.913Z,4.25
2019-01-13T12:38:37.553Z,4.16
2019-01-13T12:43:39.230Z,4.22
2019-01-13T12:48:40.745Z,4.22
2019-01-13T12:53:42.446Z,4.43
2019-01-13T12:58:43.961Z,4.24
2019-01-13T13:03:45.402Z,4.24
2019-01-13T13:08:47.069Z,4.26
2019-01-13T13:13:48.572Z,4.16
2019-01-13T13:18:50.179Z,3.99
2019-01-13T13:23:52.394Z,4.17
2019-01-13T13:28:54.125Z,4.03
2019-01-13T13:33:56.577Z,4.15
2019-01-13T13:38:58.213Z,4.17
2019-01-13T13:43:59.938Z,4.00
2019-01-13T13:49:01.739Z,4.04
2019-01-13T13:54:03.752Z,4.00
2019-01-13T13:59:05.713Z,4.22
2019-01-13T14:04:07.722Z,4.23
2019-01-13T14:09:09.612Z,4.31
2019-01-13T14:14:12.052Z,4.43
2019-01-13T14:19:14.528Z,4.49
2019-01-13T14:24:16.257Z,4.50
2019-01-13T14:29:18.625Z,4.68
2019-01-13T14:34:20.523Z,4.69
2019-01-13T14:39:24.527Z,4.59
2019-01-13T14:44:26.222Z,4.88
2019-01-13T14:49:27.797Z,4.77
2019-01-13T14:54:29.228Z,4.84
2019-01-13T14:59:30.697Z,4.84
2019-01-13T15:04:32.130Z,4.88
2019-01-13T15:09:33.586Z,4.96
2019-01-13T15:14:35.246Z,4.97
2019-01-13T15:19:36.901Z,5.04
2019-01-13T15:24:38.507Z,5.15
2019-01-13T15:29:40.220Z,5.20
2019-01-13T15:34:41.656Z,5.31
2019-01-13T15:39:45.085Z,5.10
2019-01-13T15:44:49.761Z,5.23
2019-01-13T15:49:51.594Z,5.30
2019-01-13T15:54:54.865Z,5.31
2019-01-13T15:59:56.509Z,5.25
2019-01-13T16:04:58.049Z,5.37
2019-01-13T16:10:00.221Z,5.32
2019-01-13T16:15:02.506Z,5.43
2019-01-13T16:20:15.976Z,5.47
2019-01-13T16:25:17.422Z,5.43
2019-01-13T16:30:22.512Z,5.57
2019-01-13T16:35:23.942Z,5.53
2019-01-13T16:40:25.520Z,5.85
2019-01-13T16:45:27.000Z,5.55
2019-01-13T16:50:28.583Z,5.77
2019-01-13T16:55:30.439Z,5.59
2019-01-13T17:00:33.024Z,5.57
2019-01-13T17:05:35.137Z,5.68
2019-01-13T17:10:36.821Z,6.03
2019-01-13T17:15:38.341Z,5.97
2019-01-13T17:20:39.803Z,5.85
2019-01-13T17:25:42.253Z,5.94
2019-01-13T17:30:44.422Z,5.87
2019-01-13T17:35:46.457Z,5.94
2019-01-13T17:40:52.098Z,6.10
2019-01-13T17:45:53.932Z,6.00
2019-01-13T17:50:55.749Z,6.08
2019-01-13T17:55:57.305Z,5.94
2019-01-13T18:00:58.767Z,6.18
2019-01-13T18:06:00.463Z,6.17
2019-01-13T18:11:02.052Z,6.08
2019-01-13T18:16:03.434Z,6.10
2019-01-13T18:21:05.587Z,6.19
2019-01-13T18:26:06.950Z,6.09
2019-01-13T18:31:08.334Z,6.21
2019-01-13T18:36:10.445Z,6.13
2019-01-13T18:41:17.034Z,6.25
2019-01-13T18:46:20.620Z,6.31
2019-01-13T18:51:23.851Z,6.42
2019-01-13T18:56:26.017Z,6.47
2019-01-13T19:01:27.669Z,6.32
2019-01-13T19:06:29.533Z,6.33
2019-01-13T19:11:31.186Z,6.39
2019-01-13T19:16:33.356Z,6.45
2019-01-13T19:21:35.091Z,6.26
2019-01-13T19:26:37.448Z,6.43
2019-01-13T19:31:38.757Z,6.29
2019-01-13T19:36:40.848Z,6.43
2019-01-13T19:41:42.217Z,6.47
2019-01-13T19:46:43.625Z,6.34
2019-01-13T19:51:45.014Z,6.35
2019-01-13T19:56:46.385Z,6.50
2019-01-13T20:01:48.532Z,6.44
2019-01-13T20:06:50.008Z,6.54
2019-01-13T20:11:51.333Z,6.52
2019-01-13T20:16:52.697Z,6.57
2019-01-13T20:21:54.049Z,6.68
2019-01-13T20:26:55.575Z,6.67
2019-01-13T20:31:57.106Z,6.65
2019-01-13T20:36:58.823Z,6.98
2019-01-13T20:42:00.209Z,6.88
2019-01-13T20:47:02.487Z,6.86
2019-01-13T20:52:04.605Z,7.08
2019-01-13T20:57:05.938Z,7.09
2019-01-13T21:02:07.328Z,7.03
2019-01-13T21:07:08.688Z,6.96
2019-01-13T21:12:10.015Z,6.98
2019-01-13T21:17:11.489Z,6.96
2019-01-13T21:22:12.900Z,7.16
2019-01-13T21:27:14.278Z,6.95
2019-01-13T21:32:15.693Z,7.04
2019-01-13T21:37:17.879Z,7.12
2019-01-13T21:42:26.797Z,7.04
2019-01-13T21:47:28.132Z,7.07
2019-01-13T21:52:30.748Z,7.19
2019-01-13T21:57:42.484Z,7.21
2019-01-13T22:02:47.351Z,7.10
2019-01-13T22:07:49.523Z,7.01
2019-01-13T22:12:50.910Z,7.14
2019-01-13T22:17:52.352Z,6.99
2019-01-13T22:23:04.288Z,7.06
2019-01-13T22:28:05.623Z,7.05
2019-01-13T22:33:07.135Z,6.97
2019-01-13T22:38:08.494Z,7.04
2019-01-13T22:43:10.032Z,6.53
2019-01-13T22:48:12.101Z,6.72
2019-01-13T22:53:17.261Z,6.55
2019-01-13T22:58:18.661Z,6.57
2019-01-13T23:35:01.939Z,6.85
2019-01-13T23:40:03.350Z,6.78
2019-01-13T23:45:05.466Z,6.68
2019-01-13T23:50:06.914Z,7.00
2019-01-13T23:55:10.398Z,6.83
